Last 7 Days

Williams 2

Hourly Data | America/Los_Angeles
as of 11/27/20 11:31 AM PST
Date & Time Temp (°F) RH (%) Dew Pt (°F) Wind Spd (mph) Wind Dir (°) Wind Gust (mph) Latest Rain (In) Daily Rain (In) Daily Min Temp (°F) Daily Max Temp (°F)
11/27/20 - 1100 55.0 38 29.8 2.5 S | 177 6.4 0.00 0.00 33.0 57.7
11/27/20 - 1000 52.1 43 30.6 2.3 SSE | 157 5.8 0.00 0.00 33.0 57.7
11/27/20 - 0900 44.9 58 30.7 0.0 NNE | 20 2.1 0.00 0.00 33.0 57.7
11/27/20 - 0800 36.7 72 28.5 1.5 N | 356 5.8 0.00 0.00 33.0 57.7
11/27/20 - 0700 34.5 78 28.3 1.0 N | 6 4.4 0.00 0.00 33.0 57.7
11/27/20 - 0600 34.3 77 27.9 0.2 NE | 47 2.4 0.00 0.00 33.2 57.7
11/27/20 - 0500 37.9 68 28.2 0.2 N | 8 2.4 0.00 0.00 35.2 57.7
11/27/20 - 0400 43.4 54 27.7 0.9 ESE | 109 5.4 0.00 0.00 41.6 57.7
11/27/20 - 0300 53.0 32 24.0 2.9 NE | 43 8.1 0.00 0.00 46.6 57.7
11/27/20 - 0200 56.7 28 23.6 7.4 NNW | 333 14.8 0.00 0.00 55.8 57.7
11/27/20 - 0100 56.8 26 22.6 6.5 NNW | 334 13.5 0.00 0.00 56.2 57.4
11/27/20 - 0000 57.0 27 23.3 6.3 NNW | 334 13.2 0.00 0.00 49.4 64.6
11/26/20 - 2300 57.8 26 23.3 7.4 NNW | 328 14.8 0.00 0.00 49.4 64.6
11/26/20 - 2200 58.4 25 23.2 6.6 NW | 311 19.5 0.00 0.00 49.4 64.6
11/26/20 - 2100 58.3 26 23.2 9.8 NNW | 340 19.5 0.00 0.00 49.4 64.6
11/26/20 - 2000 58.0 26 23.2 10.7 NNW | 336 20.9 0.00 0.00 49.4 64.6
11/26/20 - 1900 58.4 24 22.2 11.0 NNW | 340 21.5 0.00 0.00 49.4 64.6
11/26/20 - 1800 58.5 24 21.8 5.8 NNW | 327 13.8 0.00 0.00 49.4 64.6
11/26/20 - 1700 60.8 21 20.9 8.4 NNW | 338 15.8 0.00 0.00 49.4 64.6
11/26/20 - 1600 63.7 20 21.3 6.6 NNW | 336 16.5 0.00 0.00 49.4 64.6
11/26/20 - 1500 63.9 19 21.4 7.1 N | 358 19.8 0.00 0.00 49.4 64.6
11/26/20 - 1400 63.5 21 22.6 7.7 N | 0 17.2 0.00 0.00 49.4 64.4
11/26/20 - 1300 62.5 23 24.3 9.2 N | 4 18.5 0.00 0.00 49.4 63.6
11/26/20 - 1200 60.4 26 25.4 13.7 NNW | 344 29.2 0.00 0.00 49.4 61.4
11/26/20 - 1100 58.6 29 26.3 13.2 NNW | 343 25.9 0.00 0.00 49.4 60.0
11/26/20 - 1000 56.4 32 27.0 11.9 NNW | 342 22.5 0.00 0.00 49.4 57.6
11/26/20 - 0900 53.5 37 27.7 11.1 NNW | 339 23.2 0.00 0.00 49.4 55.1
11/26/20 - 0800 50.8 40 27.5 10.5 NNW | 338 18.5 0.00 0.00 49.4 53.1
11/26/20 - 0700 50.6 40 27.2 9.8 NNW | 343 17.8 0.00 0.00 49.4 53.1
11/26/20 - 0600 50.8 40 27.2 9.4 NNW | 339 16.8 0.00 0.00 49.4 53.1
11/26/20 - 0500 51.6 39 27.3 9.6 NNW | 342 19.2 0.00 0.00 49.4 53.1
11/26/20 - 0400 52.4 39 27.9 12.4 NNW | 343 20.9 0.00 0.00 49.4 53.1
11/26/20 - 0300 52.7 40 29.1 13.8 NNW | 342 24.6 0.00 0.00 49.4 53.1
11/26/20 - 0200 52.4 45 31.5 14.6 NNW | 340 28.2 0.00 0.00 49.4 53.1
11/26/20 - 0100 50.5 52 33.7 11.6 NNW | 340 22.9 0.00 0.00 49.4 51.9
11/26/20 - 0000 49.3 57 34.6 7.9 NNW | 342 16.2 0.00 0.00 36.8 63.1
11/25/20 - 2300 48.0 60 34.7 5.4 NNW | 330 11.8 0.00 0.00 36.8 63.1
11/25/20 - 2200 42.5 75 35.2 2.9 NNW | 332 6.8 0.00 0.00 36.8 63.1
11/25/20 - 2100 43.2 77 36.5 4.2 NNW | 348 8.8 0.00 0.00 36.8 63.1
11/25/20 - 2000 45.7 73 37.6 5.9 NNW | 345 11.5 0.00 0.00 36.8 63.1
11/25/20 - 1900 46.6 73 38.4 4.4 NNW | 342 8.1 0.00 0.00 36.8 63.1
11/25/20 - 1800 49.0 69 39.2 1.4 N | 358 4.8 0.00 0.00 36.8 63.1
11/25/20 - 1700 56.6 56 40.9 0.6 SSW | 203 4.1 0.00 0.00 36.8 63.1
11/25/20 - 1600 60.9 48 40.8 2.7 SSE | 152 6.8 0.00 0.00 36.8 63.1
11/25/20 - 1500 61.2 46 40.2 3.4 SSE | 157 7.8 0.00 0.00 36.8 63.1
11/25/20 - 1400 62.0 45 40.6 3.3 S | 173 9.5 0.00 0.00 36.8 62.9
11/25/20 - 1300 60.8 52 42.9 3.7 SSE | 161 8.4 0.00 0.00 36.8 61.9
11/25/20 - 1200 60.3 50 41.6 3.3 SE | 142 10.1 0.00 0.00 36.8 61.7
11/25/20 - 1100 58.2 53 41.2 2.4 NW | 324 9.8 0.00 0.00 36.8 59.6
11/25/20 - 1000 55.6 60 42.1 3.8 NNW | 333 10.5 0.00 0.00 36.8 57.1
11/25/20 - 0900 51.6 72 43.0 5.1 NNW | 331 11.5 0.00 0.00 36.8 54.3
11/25/20 - 0800 48.4 81 42.8 7.4 NNW | 334 13.8 0.00 0.00 36.8 50.3
11/25/20 - 0700 48.6 82 43.2 7.6 NNW | 346 12.8 0.00 0.00 36.8 50.3
11/25/20 - 0600 48.3 80 42.6 5.3 NNW | 339 11.5 0.00 0.00 36.8 50.3
11/25/20 - 0500 49.0 78 42.6 6.4 NNW | 332 12.1 0.00 0.00 36.8 50.3
11/25/20 - 0400 45.3 87 41.5 5.4 NNW | 335 14.8 0.00 0.00 36.8 50.3
11/25/20 - 0300 38.2 95 37.0 0.5 ENE | 74 3.4 0.00 0.00 36.8 41.8
11/25/20 - 0200 38.9 95 37.5 0.2 ENE | 73 2.7 0.00 0.00 37.9 41.8
11/25/20 - 0100 39.8 94 38.1 0.6 NE | 53 4.4 0.00 0.00 38.9 41.8
11/25/20 - 0000 41.2 93 39.2 1.5 NNE | 27 5.4 0.00 0.00 35.2 68.4
11/24/20 - 2300 40.8 92 38.7 1.1 NNW | 347 5.4 0.00 0.00 35.2 68.4
11/24/20 - 2200 41.7 89 38.8 1.1 N | 359 4.4 0.00 0.00 35.2 68.4
11/24/20 - 2100 43.3 88 39.9 0.4 N | 6 2.7 0.00 0.00 35.2 68.4
11/24/20 - 2000 45.1 85 40.8 0.4 NE | 55 2.7 0.00 0.00 35.2 68.4
11/24/20 - 1900 48.5 79 42.4 0.4 N | 353 3.4 0.00 0.00 35.2 68.4
11/24/20 - 1800 52.6 71 43.6 1.5 N | 355 4.8 0.00 0.00 35.2 68.4
11/24/20 - 1700 61.4 53 43.8 0.7 ESE | 108 3.8 0.00 0.00 35.2 68.4
11/24/20 - 1600 67.2 40 42.4 2.0 WSW | 254 7.4 0.00 0.00 35.2 68.4
11/24/20 - 1500 67.5 38 41.2 2.8 E | 96 8.8 0.00 0.00 35.2 68.4
11/24/20 - 1400 66.0 41 41.8 3.3 SE | 127 7.1 0.00 0.00 35.2 67.0
11/24/20 - 1300 64.2 44 41.7 3.5 SE | 132 8.1 0.00 0.00 35.2 65.2
11/24/20 - 1200 61.4 52 43.6 2.9 SE | 134 7.4 0.00 0.00 35.2 62.9
11/24/20 - 1100 58.4 57 43.4 1.8 SSE | 152 5.1 0.00 0.00 35.2 60.0
11/24/20 - 1000 53.6 66 42.6 0.5 SSW | 193 3.8 0.00 0.00 35.2 56.4
11/24/20 - 0900 45.9 82 40.7 0.2 SE | 125 4.8 0.00 0.00 35.2 50.8
11/24/20 - 0800 36.4 95 35.0 0.0 N | 0 0.0 0.00 0.00 35.2 46.8
11/24/20 - 0700 36.1 94 34.6 0.1 E | 84 3.1 0.00 0.00 35.3 46.8
11/24/20 - 0600 36.1 94 34.6 0.0 W | 271 3.4 0.00 0.00 35.3 46.8
11/24/20 - 0500 36.2 94 34.6 0.0 N | 0 0.0 0.00 0.00 35.6 46.8
11/24/20 - 0400 37.4 92 35.2 0.0 WNW | 287 3.8 0.00 0.00 36.6 46.8
11/24/20 - 0300 40.0 89 37.2 0.3 NE | 45 3.1 0.00 0.00 38.2 46.8
11/24/20 - 0200 42.8 86 38.8 1.0 N | 354 4.8 0.00 0.00 41.1 46.8
11/24/20 - 0100 45.8 82 40.6 4.6 NNW | 338 8.4 0.00 0.00 45.0 46.8
11/24/20 - 0000 46.9 81 41.4 6.8 NNW | 333 11.1 0.00 0.00 35.6 66.6
11/23/20 - 2300 46.4 84 41.7 5.9 NNW | 335 10.1 0.00 0.00 35.6 66.6
11/23/20 - 2200 47.4 82 42.3 4.5 NNW | 347 8.1 0.00 0.00 35.6 66.6
11/23/20 - 2100 49.0 80 43.2 4.7 NNW | 347 8.4 0.00 0.00 35.6 66.6
11/23/20 - 2000 47.3 85 43.0 3.3 NNW | 346 7.8 0.00 0.00 35.6 66.6
11/23/20 - 1900 49.2 80 43.4 0.2 NNW | 347 2.7 0.00 0.00 35.6 66.6
11/23/20 - 1800 52.8 74 44.7 0.9 NNE | 15 5.1 0.00 0.00 35.6 66.6
11/23/20 - 1700 60.0 59 45.5 0.9 NE | 56 4.4 0.00 0.00 35.6 66.6
11/23/20 - 1600 64.5 49 44.6 2.8 WNW | 292 7.4 0.00 0.00 35.6 66.6
11/23/20 - 1500 65.2 45 43.5 2.5 W | 273 9.1 0.00 0.00 35.6 66.6
11/23/20 - 1400 63.8 49 44.5 3.3 SSE | 161 8.4 0.00 0.00 35.6 65.4
11/23/20 - 1300 61.7 53 44.4 2.5 SSE | 161 7.8 0.00 0.00 35.6 63.0
11/23/20 - 1200 59.2 58 44.2 2.9 S | 187 7.1 0.00 0.00 35.6 60.6
11/23/20 - 1100 56.7 64 44.6 1.6 S | 185 5.1 0.00 0.00 35.6 58.6
11/23/20 - 1000 50.5 81 44.9 0.0 N | 0 0.0 0.00 0.00 35.6 54.9
11/23/20 - 0900 43.7 95 42.4 0.0 SW | 235 1.4 0.00 0.00 35.6 45.8
11/23/20 - 0800 38.6 96 37.6 0.0 N | 0 0.0 0.00 0.00 35.6 44.2
11/23/20 - 0700 36.2 96 35.1 0.0 NNW | 340 1.7 0.00 0.00 35.6 44.2
11/23/20 - 0600 37.1 95 35.9 0.1 NE | 39 2.7 0.00 0.00 36.4 44.2
11/23/20 - 0500 37.3 95 35.9 0.0 N | 0 0.0 0.00 0.00 36.7 44.2
11/23/20 - 0400 38.5 94 36.8 0.0 N | 0 0.0 0.00 0.00 37.9 44.2
11/23/20 - 0300 40.5 93 38.6 0.0 N | 350 2.4 0.00 0.00 39.8 44.2
11/23/20 - 0200 41.8 91 39.4 0.1 ENE | 76 2.4 0.00 0.00 40.6 44.2
11/23/20 - 0100 43.6 89 40.6 0.0 N | 0 0.0 0.00 0.00 42.7 44.2
11/23/20 - 0000 45.1 86 41.1 0.1 NNE | 30 4.8 0.00 0.00 36.5 66.2
11/22/20 - 2300 46.1 86 42.2 0.2 NNE | 13 4.4 0.00 0.00 36.5 66.2
11/22/20 - 2200 47.8 83 42.8 0.1 ENE | 58 2.7 0.00 0.00 36.5 66.2
11/22/20 - 2100 48.0 82 42.9 1.2 NNW | 335 5.1 0.00 0.00 36.5 66.2
11/22/20 - 2000 46.9 84 42.3 0.6 ENE | 74 3.4 0.00 0.00 36.5 66.2
11/22/20 - 1900 46.8 82 41.5 0.7 E | 80 5.4 0.00 0.00 36.5 66.2
11/22/20 - 1800 49.7 76 42.4 0.7 ENE | 73 3.8 0.00 0.00 36.5 66.2
11/22/20 - 1700 57.4 56 41.4 0.9 NW | 324 4.1 0.00 0.00 36.5 66.2
11/22/20 - 1600 61.8 42 38.7 3.5 WSW | 253 11.1 0.00 0.00 36.5 66.2
11/22/20 - 1500 62.4 36 34.8 2.2 SW | 222 5.8 0.00 0.00 36.5 66.2
11/22/20 - 1400 65.0 30 33.1 3.2 W | 275 9.5 0.00 0.00 36.5 66.2
11/22/20 - 1300 62.8 38 36.6 2.1 SE | 140 6.1 0.00 0.00 36.5 64.7
11/22/20 - 1200 59.5 42 36.6 1.9 SE | 143 6.1 0.00 0.00 36.5 61.0
11/22/20 - 1100 57.2 43 35.2 2.1 SE | 140 4.8 0.00 0.00 36.5 58.4
11/22/20 - 1000 52.9 53 36.1 0.2 S | 181 3.1 0.00 0.00 36.5 56.3
11/22/20 - 0900 43.0 74 35.3 0.5 NW | 320 4.8 0.00 0.00 36.5 46.8
11/22/20 - 0800 38.2 80 32.7 3.6 NNW | 340 9.8 0.00 0.00 36.5 45.2
11/22/20 - 0700 39.1 77 32.5 4.2 NNW | 340 9.1 0.00 0.00 36.5 45.2
11/22/20 - 0600 39.4 78 33.2 5.4 NNW | 342 10.8 0.00 0.00 36.5 45.2
11/22/20 - 0500 37.4 85 33.3 4.0 NNW | 331 8.4 0.00 0.00 36.5 45.2
11/22/20 - 0400 38.5 84 34.1 2.5 N | 351 8.1 0.00 0.00 37.6 45.2
11/22/20 - 0300 40.3 80 34.7 3.4 NNW | 335 8.8 0.00 0.00 38.8 45.2
11/22/20 - 0200 41.8 78 35.5 3.9 NNW | 346 7.4 0.00 0.00 40.3 45.2
11/22/20 - 0100 44.0 73 36.0 4.9 NNW | 348 8.1 0.00 0.00 42.6 45.2
11/22/20 - 0000 44.8 74 36.8 6.8 N | 349 11.1 0.00 0.00 29.7 65.0
11/21/20 - 2300 43.8 78 37.4 5.8 NNW | 341 9.8 0.00 0.00 29.7 65.0
11/21/20 - 2200 44.7 76 37.6 4.9 NNW | 341 8.4 0.00 0.00 29.7 65.0
11/21/20 - 2100 45.2 75 37.8 4.2 NNW | 338 7.1 0.00 0.00 29.7 65.0
11/21/20 - 2000 46.6 72 38.0 4.4 NNW | 336 8.1 0.00 0.00 29.7 65.0
11/21/20 - 1900 48.0 71 38.9 3.2 NNW | 342 6.8 0.00 0.00 29.7 65.0
11/21/20 - 1800 49.1 72 40.3 0.2 NNE | 20 2.7 0.00 0.00 29.7 65.0
11/21/20 - 1700 57.6 51 39.0 0.5 SE | 138 3.4 0.00 0.00 29.7 65.0
11/21/20 - 1600 63.6 37 37.0 2.7 SSE | 154 7.1 0.00 0.00 29.7 65.0
11/21/20 - 1500 62.7 38 36.6 3.3 SSE | 152 6.8 0.00 0.00 29.7 64.1
11/21/20 - 1400 61.6 40 37.4 3.5 SSE | 161 7.1 0.00 0.00 29.7 62.8
11/21/20 - 1300 61.7 39 36.2 2.1 SSE | 162 6.1 0.00 0.00 29.7 62.7
11/21/20 - 1200 57.3 50 38.9 2.6 S | 177 6.1 0.00 0.00 29.7 59.9
11/21/20 - 1100 54.1 56 39.0 2.3 S | 178 5.8 0.00 0.00 29.7 55.3
11/21/20 - 1000 50.1 64 38.6 0.8 SSE | 149 4.1 0.00 0.00 29.7 52.6
11/21/20 - 0900 42.1 79 36.0 0.1 NNW | 338 4.1 0.00 0.00 29.7 46.4
11/21/20 - 0800 34.4 94 32.8 0.5 N | 352 4.4 0.00 0.00 29.7 38.9
11/21/20 - 0700 31.6 96 30.6 0.2 N | 3 3.4 0.00 0.00 29.7 38.9
11/21/20 - 0600 30.2 96 29.1 0.1 NNE | 32 2.7 0.00 0.00 29.7 38.9
11/21/20 - 0500 30.9 95 29.7 0.2 NNE | 15 3.1 0.00 0.00 30.5 38.9
11/21/20 - 0400 32.0 94 30.4 0.1 NE | 55 2.1 0.00 0.00 31.3 38.9
11/21/20 - 0300 33.3 92 31.4 0.2 NE | 46 3.1 0.00 0.00 32.8 38.9
11/21/20 - 0200 34.5 89 31.8 0.3 ENE | 77 2.4 0.00 0.00 33.7 38.9
11/21/20 - 0100 37.6 83 33.0 0.6 NNE | 21 3.8 0.00 0.00 36.2 38.9
11/21/20 - 0000 39.7 80 34.1 2.0 N | 349 5.8 0.00 0.00 31.6 67.1
11/20/20 - 2300 41.1 79 35.0 2.4 N | 3 6.4 0.00 0.00 31.6 67.1
11/20/20 - 2200 42.5 78 36.0 3.7 NNW | 334 7.8 0.00 0.00 31.6 67.1
11/20/20 - 2100 43.6 76 36.6 4.9 NNW | 334 8.4 0.00 0.00 31.6 67.1
11/20/20 - 2000 46.2 71 37.4 4.7 NNW | 334 8.1 0.00 0.00 31.6 67.1
11/20/20 - 1900 47.5 69 37.7 5.4 NNW | 339 8.1 0.00 0.00 31.6 67.1
11/20/20 - 1800 50.4 64 38.8 2.8 N | 356 7.1 0.00 0.00 31.6 67.1
11/20/20 - 1700 59.0 55 42.7 0.9 S | 174 4.1 0.00 0.00 31.6 67.1
11/20/20 - 1600 65.6 37 38.3 3.1 S | 176 7.1 0.00 0.00 31.6 67.1
11/20/20 - 1500 66.6 33 36.4 2.9 SSW | 198 6.8 0.00 0.00 31.6 67.1
11/20/20 - 1400 65.5 32 34.5 1.5 SW | 228 5.4 0.00 0.00 31.6 67.0
11/20/20 - 1300 62.7 38 36.5 2.2 S | 191 5.8 0.00 0.00 31.6 64.6
11/20/20 - 1200 59.6 44 37.8 2.4 SSE | 161 5.4 0.00 0.00 31.6 61.2
Max 67.5 96 45.5 14.6 - 29.2 0.00 0.00 56.2 68.4
Avg 49.9 64 36.0 3.4 - 8.2 0.00 - - -
Min 30.2 19 20.9 0.0 - 0.0 0.00 0.00 29.7 38.9
Total - - - - - - 0.00 - - -
Tip: Bookmark this page for easy future reference